Time;durP1;ratioP1;P1;durP2;ratioP2;P2;SDS_P1;SDS_P2;PMS_P1;PMS_P2;Temp;Humidity;BMP_temperature;BMP_pressure;BME280_temperature;BME280_humidity;BME280_pressure;Samples;Min_cycle;Max_cycle;Signal;HPM_P1;HPM_P2
2022/05/20 00:02:18;;;;;;;9.00;3.33;;;;;;;29.98;21.19;100839.63;4934884;29;20031;-54
2022/05/20 00:04:44;;;;;;;10.65;3.20;;;;;;;30.09;20.21;100834.50;4934841;29;20090;-55
2022/05/20 00:07:11;;;;;;;8.02;2.90;;;;;;;30.25;20.17;100841.06;4934368;29;20035;-55
2022/05/20 00:09:37;;;;;;;7.75;2.95;;;;;;;30.34;20.96;100841.00;4934691;29;20107;-55
2022/05/20 00:12:05;;;;;;;10.60;3.65;;;;;;;30.31;20.82;100830.63;4934776;29;20051;-55
2022/05/20 00:14:32;;;;;;;11.88;3.85;;;;;;;29.98;20.73;100823.91;4934755;29;20110;-55
2022/05/20 00:17:04;;;;;;;10.63;3.40;;;;;;;29.96;19.81;100825.38;4934660;29;20106;-55
2022/05/20 00:19:31;;;;;;;8.77;3.08;;;;;;;29.68;20.35;100820.38;4934397;29;20035;-55
2022/05/20 00:21:57;;;;;;;12.95;3.70;;;;;;;29.54;21.36;100817.09;4934540;29;20031;-55
2022/05/20 00:24:23;;;;;;;9.27;3.13;;;;;;;29.50;19.84;100813.34;4934749;29;20024;-55
2022/05/20 00:26:50;;;;;;;9.80;3.65;;;;;;;29.46;20.77;100817.91;4934531;29;20031;-55
2022/05/20 00:29:18;;;;;;;13.25;3.92;;;;;;;29.35;20.51;100805.66;4934423;29;20397;-55
2022/05/20 00:31:44;;;;;;;10.25;3.00;;;;;;;29.47;20.36;100805.75;4934671;29;20032;-55
2022/05/20 00:34:10;;;;;;;12.52;3.67;;;;;;;29.04;21.16;100804.06;4934583;29;20027;-55
2022/05/20 00:36:37;;;;;;;11.52;3.72;;;;;;;28.86;21.37;100805.22;4934336;29;20050;-55
2022/05/20 00:39:05;;;;;;;11.80;3.80;;;;;;;28.99;20.62;100807.00;4934168;29;20489;-55
2022/05/20 00:41:31;;;;;;;9.30;3.78;;;;;;;29.02;21.38;100802.75;4951989;29;20092;-55
2022/05/20 00:43:58;;;;;;;17.77;4.10;;;;;;;28.96;21.73;100804.06;4952248;28;20118;-53
2022/05/20 00:46:27;;;;;;;12.15;3.70;;;;;;;28.55;21.66;100795.28;4953018;28;20531;-56
2022/05/20 00:49:05;;;;;;;13.27;3.33;;;;;;;28.49;21.87;100802.09;4953056;28;20046;-56
2022/05/20 00:51:35;;;;;;;10.25;3.40;;;;;;;28.25;22.12;100805.34;4951944;28;20094;-56
2022/05/20 00:54:21;;;;;;;13.82;4.00;;;;;;;28.19;22.06;100808.59;4936976;28;20453;-56
2022/05/20 00:57:20;;;;;;;18.92;10.43;;;;;;;27.78;22.51;100809.91;4940430;29;20031;-55
2022/05/20 00:59:55;;;;;;;9.70;3.38;;;;;;;27.75;22.35;100807.78;4951367;28;20473;-56
2022/05/20 01:02:25;;;;;;;15.35;3.63;;;;;;;27.67;23.14;100806.63;4952607;28;20039;-55
2022/05/20 01:04:56;;;;;;;12.23;3.40;;;;;;;27.54;22.85;100800.13;4953226;28;20495;-56
2022/05/20 01:07:25;;;;;;;11.70;3.95;;;;;;;27.57;23.94;100795.91;4953446;28;20039;-55
2022/05/20 01:09:52;;;;;;;10.93;6.72;;;;;;;27.35;22.56;100791.34;4955707;28;20408;-56
2022/05/20 01:12:20;;;;;;;15.70;8.18;;;;;;;27.24;23.09;100798.28;4965713;28;20019;-56
2022/05/20 01:14:49;;;;;;;12.90;5.30;;;;;;;27.27;23.15;100797.66;4964958;28;20074;-56
2022/05/20 01:17:15;;;;;;;33.28;21.27;;;;;;;27.19;23.44;100801.97;4957299;28;20151;-55
2022/05/20 01:19:53;;;;;;;11.63;5.32;;;;;;;27.13;23.15;100802.44;4956699;28;20027;-56
2022/05/20 01:22:58;;;;;;;15.05;7.28;;;;;;;26.92;23.99;100807.66;4955696;28;20382;-56
2022/05/20 01:25:26;;;;;;;15.77;8.53;;;;;;;26.86;25.43;100804.25;4944546;29;20035;-56
2022/05/20 01:27:53;;;;;;;17.52;10.98;;;;;;;26.82;24.57;100798.59;4953436;28;20130;-56
2022/05/20 01:30:25;;;;;;;16.95;9.32;;;;;;;26.48;24.04;100796.44;4937491;28;20024;-56
2022/05/20 01:32:51;;;;;;;16.98;8.75;;;;;;;26.52;23.83;100794.69;4937570;29;20392;-56
2022/05/20 01:35:50;;;;;;;14.50;6.20;;;;;;;26.10;25.17;100784.25;4960906;28;20030;-56
2022/05/20 01:38:17;;;;;;;14.75;8.65;;;;;;;26.11;24.28;100792.16;4921571;28;20408;-56
2022/05/20 01:41:02;;;;;;;13.75;5.70;;;;;;;26.25;24.80;100787.41;4937136;29;20141;-56
2022/05/20 01:44:01;;;;;;;16.38;3.85;;;;;;;26.34;24.52;100787.47;4937097;28;20036;-56
2022/05/20 01:46:52;;;;;;;14.50;3.45;;;;;;;26.11;25.14;100791.34;4947429;28;20074;-56
2022/05/20 01:49:31;;;;;;;9.40;3.92;;;;;;;25.96;24.51;100778.81;4955930;28;20054;-56
2022/05/20 01:52:17;;;;;;;11.60;4.47;;;;;;;25.91;25.09;100776.19;4946242;28;20047;-55
2022/05/20 01:55:11;;;;;;;10.35;3.80;;;;;;;25.96;25.14;100768.63;4936944;28;20484;-56
2022/05/20 01:57:48;;;;;;;9.05;3.35;;;;;;;25.95;25.09;100779.94;4936872;29;20118;-56
2022/05/20 02:00:25;;;;;;;10.35;3.42;;;;;;;26.19;24.48;100771.38;4936743;29;20035;-56
2022/05/20 02:03:09;;;;;;;13.57;3.88;;;;;;;26.25;24.67;100775.63;4936590;29;20481;-56
2022/05/20 02:06:04;;;;;;;11.93;3.33;;;;;;;26.56;24.03;100773.75;4962316;28;20027;-55
2022/05/20 02:08:43;;;;;;;12.85;4.47;;;;;;;26.54;24.41;100778.75;4953767;28;20066;-56
2022/05/20 02:11:13;;;;;;;11.07;4.10;;;;;;;26.35;23.79;100777.31;4955361;28;20035;-55
2022/05/20 02:13:52;;;;;;;16.80;4.78;;;;;;;26.70;23.38;100781.06;4935358;28;20063;-56
2022/05/20 02:16:28;;;;;;;14.93;4.22;;;;;;;27.14;23.08;100787.56;4941954;28;20031;-56
2022/05/20 02:19:15;;;;;;;12.23;3.80;;;;;;;27.55;22.63;100795.44;4941517;28;20035;-56
2022/05/20 02:21:47;;;;;;;13.55;4.07;;;;;;;27.72;22.65;100778.19;4936655;29;20040;-57
2022/05/20 02:24:19;;;;;;;15.57;4.68;;;;;;;27.51;23.14;100784.28;4942401;28;20064;-56
2022/05/20 02:26:56;;;;;;;8.20;3.80;;;;;;;27.68;23.04;100788.16;4943006;28;20027;-56
2022/05/20 02:29:30;;;;;;;13.32;4.35;;;;;;;27.54;22.70;100789.13;4957825;28;20444;-56
2022/05/20 02:32:17;;;;;;;13.17;4.43;;;;;;;27.74;22.71;100784.16;4955879;28;20027;-56
2022/05/20 02:34:44;;;;;;;12.80;5.53;;;;;;;27.75;22.91;100783.03;4955406;28;20058;-57
2022/05/20 02:37:23;;;;;;;15.90;4.50;;;;;;;27.64;22.35;100780.56;4955954;28;20039;-56
2022/05/20 02:39:50;;;;;;;16.48;5.07;;;;;;;27.49;22.89;100785.75;4935254;28;20036;-56
2022/05/20 02:42:17;;;;;;;12.05;4.13;;;;;;;27.14;22.78;100779.34;4937905;28;20031;-56
2022/05/20 02:44:44;;;;;;;15.02;5.07;;;;;;;26.75;23.70;100775.44;4941872;28;20102;-56
2022/05/20 02:47:11;;;;;;;12.90;4.40;;;;;;;26.25;24.12;100772.88;4953128;28;20039;-57
2022/05/20 02:49:37;;;;;;;9.05;4.40;;;;;;;26.18;24.33;100772.50;4949988;28;20031;-56
2022/05/20 02:52:05;;;;;;;11.07;4.18;;;;;;;25.87;25.27;100767.75;4961529;28;20683;-60
2022/05/20 02:54:32;;;;;;;12.63;4.40;;;;;;;25.61;25.04;100763.97;4936765;29;20024;-56
2022/05/20 02:56:59;;;;;;;15.23;4.43;;;;;;;25.48;24.90;100769.16;4937081;29;20032;-57
2022/05/20 03:04:58;;;;;;;13.05;4.00;;;;;;;24.77;26.35;100769.78;4952089;28;20104;-55
2022/05/20 03:07:25;;;;;;;11.05;3.83;;;;;;;24.49;26.72;100772.50;4947082;28;20044;-55
2022/05/20 03:09:52;;;;;;;12.75;4.32;;;;;;;23.96;25.87;100770.84;4938425;28;20050;-55
2022/05/20 03:12:19;;;;;;;11.68;3.83;;;;;;;23.81;27.46;100776.53;4942353;28;20031;-54
2022/05/20 03:14:46;;;;;;;14.07;3.83;;;;;;;23.62;26.56;100772.97;4945607;28;20078;-54
2022/05/20 03:17:15;;;;;;;10.70;3.97;;;;;;;23.39;27.92;100775.47;4937787;29;20134;-55
2022/05/20 03:19:42;;;;;;;15.45;4.13;;;;;;;23.48;27.48;100774.81;4965624;28;20031;-55
2022/05/20 03:22:09;;;;;;;17.90;4.13;;;;;;;22.99;27.75;100773.25;4953068;28;20035;-55
2022/05/20 03:24:37;;;;;;;14.90;4.20;;;;;;;22.66;28.90;100768.38;4952455;28;20023;-55
2022/05/20 03:27:05;;;;;;;12.63;4.18;;;;;;;22.67;29.05;100775.44;4945175;28;20092;-55
2022/05/20 03:29:32;;;;;;;11.40;3.50;;;;;;;22.73;28.78;100776.22;4964976;28;20027;-55
2022/05/20 03:31:59;;;;;;;11.07;3.45;;;;;;;22.62;29.08;100778.22;4955922;28;20031;-54
2022/05/20 03:34:26;;;;;;;9.20;3.80;;;;;;;22.48;29.42;100784.63;4955948;28;20399;-55
2022/05/20 03:36:52;;;;;;;12.30;3.38;;;;;;;22.43;29.84;100773.75;4938237;28;20036;-54
2022/05/20 03:39:22;;;;;;;8.93;3.35;;;;;;;21.93;29.43;100778.50;4952325;28;20046;-54
2022/05/20 03:42:24;;;;;;;;;;;;;;;;;;;;;
2022/05/20 03:44:55;;;;;;;11.48;3.30;;;;;;;21.37;30.53;100776.09;4947920;28;20054;-53
2022/05/20 03:47:22;;;;;;;11.57;3.80;;;;;;;21.34;31.12;100778.28;4957627;28;20039;-54
2022/05/20 03:49:49;;;;;;;9.38;3.72;;;;;;;21.35;30.18;100788.09;4954912;28;20031;-54
2022/05/20 03:52:16;;;;;;;12.48;3.15;;;;;;;21.23;31.35;100794.91;4954449;28;20517;-55
2022/05/20 03:54:43;;;;;;;11.10;3.78;;;;;;;21.25;31.70;100787.28;4954305;28;20451;-54
2022/05/20 03:57:09;;;;;;;9.93;3.83;;;;;;;21.09;32.26;100794.69;4954629;28;20031;-54
2022/05/20 03:59:36;;;;;;;11.48;4.20;;;;;;;21.00;31.79;100785.47;4972705;28;20026;-54
2022/05/20 04:02:09;;;;;;;10.15;4.28;;;;;;;21.08;31.98;100793.88;4973651;28;20034;-54
2022/05/20 04:04:37;;;;;;;12.60;3.30;;;;;;;20.54;31.37;100793.69;4973552;28;20109;-54
2022/05/20 04:07:09;;;;;;;8.52;3.28;;;;;;;20.28;31.25;100793.69;4973528;28;20026;-54
2022/05/20 04:09:35;;;;;;;10.38;3.47;;;;;;;20.46;31.86;100792.34;4962140;28;20059;-55
2022/05/20 04:12:04;;;;;;;11.50;4.03;;;;;;;20.46;31.38;100797.00;4953997;28;20043;-53
2022/05/20 04:14:32;;;;;;;8.65;3.35;;;;;;;20.40;31.17;100798.03;4949914;28;20374;-54
2022/05/20 04:16:58;;;;;;;8.05;2.72;;;;;;;20.18;31.81;100801.03;4952369;28;20027;-54
2022/05/20 04:19:29;;;;;;;7.38;3.03;;;;;;;20.28;31.80;100801.84;4973060;28;20106;-56
2022/05/20 04:21:59;;;;;;;10.43;4.00;;;;;;;20.18;32.42;100796.41;4942581;28;20031;-57
2022/05/20 04:24:26;;;;;;;10.55;3.65;;;;;;;20.17;32.62;100802.94;4950313;28;20106;-55
2022/05/20 04:26:52;;;;;;;9.52;3.05;;;;;;;19.99;32.48;100804.28;4953271;28;20046;-55
2022/05/20 04:29:19;;;;;;;7.47;2.97;;;;;;;19.95;31.88;100802.38;4951276;28;20023;-55
2022/05/20 04:31:48;;;;;;;8.68;3.33;;;;;;;19.93;32.16;100802.66;4952465;28;20369;-55
2022/05/20 04:34:15;;;;;;;9.07;3.15;;;;;;;19.95;31.53;100808.63;4937199;28;20031;-55
2022/05/20 04:36:46;;;;;;;8.75;3.00;;;;;;;19.85;31.91;100807.78;4942798;29;20075;-54
2022/05/20 04:39:13;;;;;;;9.45;2.63;;;;;;;19.82;31.48;100800.97;4952716;28;20042;-55
2022/05/20 04:47:21;;;;;;;9.82;3.28;;;;;;;19.80;32.31;100811.28;4957517;29;20050;-53
2022/05/20 04:49:47;;;;;;;11.15;2.55;;;;;;;19.72;31.86;100815.34;4956050;28;20023;-52
2022/05/20 04:52:13;;;;;;;9.27;3.28;;;;;;;19.86;31.97;100825.69;4954378;28;20055;-54
2022/05/20 04:54:52;;;;;;;6.55;2.75;;;;;;;19.95;31.86;100830.34;4962134;28;20023;-53
2022/05/20 04:57:25;;;;;;;6.65;3.03;;;;;;;19.76;32.70;100831.91;4956899;28;20042;-53
2022/05/20 04:59:52;;;;;;;8.10;2.42;;;;;;;19.84;32.40;100839.56;4956883;28;20539;-54
2022/05/20 05:02:19;;;;;;;7.18;2.80;;;;;;;19.79;32.83;100825.97;4956112;28;20031;-54
2022/05/20 05:04:46;;;;;;;6.68;3.10;;;;;;;19.91;32.52;100837.38;4957143;28;20489;-53
2022/05/20 05:07:13;;;;;;;12.13;2.60;;;;;;;19.70;32.30;100839.22;4955973;28;20031;-54
2022/05/20 05:09:41;;;;;;;10.05;3.08;;;;;;;19.70;32.81;100830.25;4948562;28;20393;-53
2022/05/20 05:12:08;;;;;;;7.07;2.75;;;;;;;19.62;33.29;100847.09;4937652;29;20079;-52
2022/05/20 05:14:46;;;;;;;7.38;2.63;;;;;;;19.62;32.74;100837.03;4950726;29;20035;-53
2022/05/20 05:17:16;;;;;;;7.32;2.92;;;;;;;19.39;32.82;100845.59;4957274;28;20046;-52
2022/05/20 05:19:44;;;;;;;10.10;2.88;;;;;;;19.46;33.12;100840.75;4955858;28;20031;-52
2022/05/20 05:22:12;;;;;;;10.15;2.58;;;;;;;19.04;33.67;100827.22;4957154;28;20162;-53
2022/05/20 05:24:38;;;;;;;6.63;2.42;;;;;;;19.19;33.17;100836.25;4954136;28;20483;-54
2022/05/20 05:27:05;;;;;;;7.35;2.38;;;;;;;19.28;32.65;100843.94;4956552;28;20038;-52
2022/05/20 05:29:34;;;;;;;8.32;2.03;;;;;;;19.05;32.61;100845.16;4957472;28;20399;-52
2022/05/20 05:32:00;;;;;;;7.10;2.22;;;;;;;19.03;32.83;100853.53;4958468;28;20027;-54
2022/05/20 05:34:27;;;;;;;8.93;2.53;;;;;;;18.98;33.44;100851.59;4956470;28;20054;-53
2022/05/20 05:36:53;;;;;;;11.23;2.47;;;;;;;19.05;32.92;100859.53;4956636;28;20550;-52
2022/05/20 05:39:20;;;;;;;5.47;2.38;;;;;;;18.92;33.15;100860.78;4956484;28;20027;-52
2022/05/20 05:41:46;;;;;;;6.20;2.20;;;;;;;18.93;33.72;100858.88;4956368;28;20023;-53
2022/05/20 05:44:12;;;;;;;10.00;2.70;;;;;;;18.73;33.30;100857.69;4956313;28;20047;-53
2022/05/20 05:46:38;;;;;;;7.20;2.10;;;;;;;18.58;33.68;100851.28;4956291;28;20031;-52
2022/05/20 05:49:06;;;;;;;12.20;2.60;;;;;;;18.46;34.04;100844.16;4956190;28;20089;-52
2022/05/20 05:51:32;;;;;;;10.65;2.28;;;;;;;18.36;34.38;100845.94;4955739;28;20119;-53
2022/05/20 05:53:59;;;;;;;8.68;2.60;;;;;;;18.45;33.88;100849.84;4955355;28;20027;-52
2022/05/20 05:56:25;;;;;;;7.32;2.30;;;;;;;18.34;34.40;100848.09;4956107;28;20094;-53
2022/05/20 05:58:51;;;;;;;8.57;2.28;;;;;;;18.26;33.90;100845.84;4955840;28;20110;-52
2022/05/20 06:01:18;;;;;;;6.53;2.50;;;;;;;18.20;34.08;100837.66;4956234;28;20031;-54
2022/05/20 06:03:44;;;;;;;9.13;2.55;;;;;;;18.16;33.89;100841.16;4956083;28;20120;-53
2022/05/20 06:06:10;;;;;;;7.18;2.38;;;;;;;18.10;33.98;100843.00;4956003;28;20027;-53
2022/05/20 06:08:36;;;;;;;5.07;2.03;;;;;;;18.10;33.77;100845.72;4955295;28;20042;-54
2022/05/20 06:11:03;;;;;;;4.43;2.10;;;;;;;18.02;34.11;100843.47;4937209;28;20027;-55
2022/05/20 06:13:30;;;;;;;8.20;1.95;;;;;;;17.91;34.37;100842.53;4937236;29;20527;-55
2022/05/20 06:15:57;;;;;;;5.28;2.22;;;;;;;17.81;34.55;100844.31;4936534;29;20481;-53
2022/05/20 06:18:26;;;;;;;6.57;2.13;;;;;;;17.94;33.92;100857.47;4936332;29;20027;-52
2022/05/20 06:20:52;;;;;;;5.78;2.10;;;;;;;17.88;33.86;100853.06;4954953;29;20392;-52
2022/05/20 06:23:19;;;;;;;5.72;1.73;;;;;;;17.83;33.54;100851.13;4955688;28;20086;-52
2022/05/20 06:25:45;;;;;;;6.13;2.28;;;;;;;17.91;32.97;100856.06;4955409;28;20035;-53
2022/05/20 06:28:15;;;;;;;9.50;2.33;;;;;;;17.81;32.98;100858.66;4955198;28;20527;-52
2022/05/20 06:30:42;;;;;;;8.52;1.92;;;;;;;17.85;32.65;100851.69;4955684;28;20035;-52
2022/05/20 06:33:09;;;;;;;5.35;1.70;;;;;;;17.82;33.57;100864.88;4956334;28;20049;-52
2022/05/20 06:41:06;;;;;;;8.43;2.10;;;;;;;17.49;33.12;100836.03;4953524;29;20090;-52
2022/05/20 06:43:33;;;;;;;8.07;2.30;;;;;;;17.50;32.09;100849.34;4954625;28;20042;-51
2022/05/20 06:46:04;;;;;;;5.57;2.13;;;;;;;17.62;32.45;100851.91;4954567;28;20035;-52
2022/05/20 06:48:51;;;;;;;5.95;2.35;;;;;;;17.42;32.94;100847.06;4955226;28;20035;-52
2022/05/20 06:51:21;;;;;;;6.80;2.17;;;;;;;17.41;31.91;100864.38;4954169;28;20511;-52
2022/05/20 06:53:48;;;;;;;7.00;2.30;;;;;;;17.40;31.76;100858.13;4954892;28;20091;-52
2022/05/20 06:56:15;;;;;;;9.85;2.38;;;;;;;17.30;31.81;100870.72;4954029;28;20039;-51
2022/05/20 06:58:43;;;;;;;9.63;2.25;;;;;;;17.28;31.84;100860.16;4954994;28;20065;-52
2022/05/20 07:01:09;;;;;;;3.90;1.60;;;;;;;17.17;31.74;100861.06;4954215;28;20035;-52
2022/05/20 07:03:35;;;;;;;9.23;2.55;;;;;;;17.17;32.14;100860.25;4954679;28;20059;-52
2022/05/20 07:06:03;;;;;;;7.82;2.58;;;;;;;17.12;32.56;100864.53;4953713;28;20040;-51
2022/05/20 07:08:30;;;;;;;6.40;2.33;;;;;;;17.22;32.47;100873.84;4952422;29;20166;-51
2022/05/20 07:10:56;;;;;;;7.88;2.10;;;;;;;17.10;32.91;100868.53;4949797;28;20027;-51
2022/05/20 07:13:23;;;;;;;14.45;2.70;;;;;;;16.96;32.71;100869.97;4954613;28;20552;-52
2022/05/20 07:15:49;;;;;;;7.53;2.30;;;;;;;16.94;32.99;100864.81;4950642;28;20045;-52
2022/05/20 07:18:15;;;;;;;6.32;2.60;;;;;;;16.88;32.74;100874.72;4937236;28;20707;-51
2022/05/20 07:20:42;;;;;;;11.48;3.20;;;;;;;16.78;33.77;100868.34;4935785;29;20028;-52
2022/05/20 07:23:09;;;;;;;8.80;2.33;;;;;;;16.65;34.46;100880.25;4945940;29;20028;-52
2022/05/20 07:25:37;;;;;;;8.20;2.78;;;;;;;16.65;33.89;100882.94;4941357;28;20039;-52
2022/05/20 07:28:05;;;;;;;6.70;2.58;;;;;;;16.73;33.64;100884.47;4954189;28;20031;-52
2022/05/20 07:30:32;;;;;;;8.98;2.38;;;;;;;16.52;33.82;100883.28;4953413;28;20400;-52
2022/05/20 07:32:59;;;;;;;9.30;2.42;;;;;;;16.45;33.26;100874.50;4954453;28;20138;-52
2022/05/20 07:35:25;;;;;;;8.38;2.50;;;;;;;16.44;33.38;100864.78;4945211;28;20847;-53
2022/05/20 07:37:51;;;;;;;7.38;2.10;;;;;;;16.45;33.45;100859.13;4935216;28;20114;-51
2022/05/20 07:40:19;;;;;;;6.97;2.58;;;;;;;16.38;33.87;100861.16;4947599;28;20488;-52
2022/05/20 07:42:46;;;;;;;5.43;2.25;;;;;;;16.34;33.99;100873.50;4952883;28;20444;-52
2022/05/20 07:45:15;;;;;;;6.07;1.85;;;;;;;16.31;33.45;100877.50;4953036;28;20043;-52
2022/05/20 07:47:42;;;;;;;9.80;2.53;;;;;;;16.26;34.39;100885.50;4953976;28;20098;-52
2022/05/20 07:50:09;;;;;;;6.78;2.60;;;;;;;16.20;33.64;100874.88;4951347;28;20379;-52
2022/05/20 07:55:31;;;;;;;6.82;2.13;;;;;;;16.09;33.75;100888.16;4952569;29;20038;-52
2022/05/20 07:57:58;;;;;;;8.15;2.10;;;;;;;15.82;34.40;100893.34;4954040;28;20031;-52
2022/05/20 08:00:26;;;;;;;8.93;2.47;;;;;;;15.92;34.45;100887.31;4953092;28;20043;-51
2022/05/20 08:02:55;;;;;;;7.85;1.98;;;;;;;15.78;34.23;100881.38;4953059;28;20031;-52
2022/05/20 08:05:22;;;;;;;10.05;2.63;;;;;;;15.81;33.86;100880.06;4953152;28;20107;-52
2022/05/20 08:07:50;;;;;;;7.15;2.17;;;;;;;15.82;33.84;100887.94;4950638;28;20516;-52
2022/05/20 08:10:20;;;;;;;7.53;2.08;;;;;;;15.88;34.20;100880.78;4941289;28;20079;-52
2022/05/20 08:12:46;;;;;;;8.73;2.38;;;;;;;15.83;34.44;100876.09;4951853;28;20027;-51
2022/05/20 08:15:14;;;;;;;9.23;1.90;;;;;;;15.80;34.59;100883.81;4953925;28;20499;-54
2022/05/20 08:17:41;;;;;;;7.80;2.20;;;;;;;15.83;34.36;100877.97;4953474;28;20035;-50
2022/05/20 08:20:21;;;;;;;7.90;2.05;;;;;;;15.59;34.80;100861.78;4953035;28;20059;-51
2022/05/20 08:22:51;;;;;;;5.60;1.70;;;;;;;15.78;34.07;100861.66;4953841;28;20118;-52
2022/05/20 08:25:17;;;;;;;8.27;2.45;;;;;;;15.83;32.89;100859.06;4953318;28;20027;-51
2022/05/20 08:27:44;;;;;;;6.18;2.35;;;;;;;15.60;34.25;100870.69;4953788;28;20027;-51
2022/05/20 08:30:32;;;;;;;10.27;2.65;;;;;;;15.58;33.84;100870.13;4953442;28;20034;-51
2022/05/20 08:32:58;;;;;;;5.68;1.92;;;;;;;15.45;34.62;100868.53;4953214;28;20039;-52
2022/05/20 08:35:27;;;;;;;7.28;2.15;;;;;;;15.51;34.98;100870.28;4953425;28;20508;-51
2022/05/20 08:37:54;;;;;;;6.82;2.20;;;;;;;15.46;35.28;100855.84;4953379;28;20464;-49
2022/05/20 08:40:29;;;;;;;5.93;2.10;;;;;;;15.34;35.02;100872.06;4953183;28;20031;-52
2022/05/20 08:43:00;;;;;;;10.80;2.38;;;;;;;15.39;35.51;100866.78;4953394;28;20031;-51
2022/05/20 08:45:28;;;;;;;8.82;1.83;;;;;;;15.22;35.74;100877.47;4953282;28;20043;-50
2022/05/20 08:47:56;;;;;;;9.80;1.92;;;;;;;15.02;36.30;100893.97;4952825;28;20032;-52
2022/05/20 08:50:31;;;;;;;6.28;1.73;;;;;;;15.16;36.00;100883.00;4953678;28;20031;-51
2022/05/20 08:52:57;;;;;;;;;;;;;;;15.30;35.91;100874.41;4953927;28;20124;-52
2022/05/20 08:55:24;;;;;;;6.60;2.28;;;;;;;15.24;36.06;100863.75;4953272;28;19914;-50
2022/05/20 08:58:02;;;;;;;6.80;1.77;;;;;;;15.20;35.75;100868.78;4952801;28;20135;-50
2022/05/20 09:00:29;;;;;;;9.07;2.70;;;;;;;15.10;36.07;100856.94;4953160;28;20079;-51
2022/05/20 09:02:56;;;;;;;4.07;1.95;;;;;;;15.03;36.53;100857.88;4953334;28;20031;-51
2022/05/20 09:05:30;;;;;;;8.48;2.30;;;;;;;14.88;36.53;100844.06;4953269;28;20110;-51
2022/05/20 09:08:17;;;;;;;6.18;2.30;;;;;;;14.95;36.39;100846.66;4952527;28;20186;-52
2022/05/20 09:10:53;;;;;;;6.32;2.03;;;;;;;14.88;36.61;100854.84;4949870;29;20042;-52
2022/05/20 09:16:18;;;;;;;6.68;1.83;;;;;;;14.81;36.74;100851.44;4944369;28;20063;-51
2022/05/20 09:18:50;;;;;;;4.30;1.60;;;;;;;14.74;36.93;100845.34;4938364;28;20028;-51
2022/05/20 09:21:26;;;;;;;7.00;2.05;;;;;;;14.81;36.75;100839.84;4945393;28;20117;-51
2022/05/20 09:23:58;;;;;;;7.55;2.22;;;;;;;14.68;37.29;100840.91;4938493;28;20059;-51
2022/05/20 09:26:37;;;;;;;8.18;2.17;;;;;;;14.67;37.23;100839.25;4933943;29;20028;-50
2022/05/20 09:29:21;;;;;;;8.40;2.20;;;;;;;14.66;37.38;100851.09;4935369;28;20027;-55
2022/05/20 09:31:52;;;;;;;7.63;1.95;;;;;;;14.60;38.23;100852.00;4942043;29;20034;-51
2022/05/20 09:34:21;;;;;;;5.18;1.90;;;;;;;14.89;38.27;100848.41;4955173;28;20027;-52
2022/05/20 09:37:02;;;;;;;6.85;2.28;;;;;;;14.81;38.96;100843.34;4937653;28;20087;-51
2022/05/20 09:39:41;;;;;;;6.05;1.70;;;;;;;14.86;39.04;100848.88;4937523;29;20357;-51
2022/05/20 09:42:28;;;;;;;4.03;1.70;;;;;;;14.83;36.99;100845.84;4937608;28;20067;-51
2022/05/20 09:44:57;;;;;;;4.90;1.90;;;;;;;14.64;37.18;100835.13;4936833;29;20047;-51
2022/05/20 09:47:37;;;;;;;8.18;1.75;;;;;;;14.52;37.22;100839.69;4937386;28;20024;-51
2022/05/20 09:50:17;;;;;;;8.40;2.30;;;;;;;14.50;37.92;100844.50;4951449;29;20435;-51
2022/05/20 09:52:55;;;;;;;8.48;2.60;;;;;;;14.72;39.09;100842.06;4956219;28;20023;-51
2022/05/20 09:55:29;;;;;;;6.25;2.30;;;;;;;14.48;39.95;100851.97;4956237;28;20062;-51
2022/05/20 09:58:11;;;;;;;9.38;2.80;;;;;;;14.45;40.12;100850.56;4956317;28;20424;-50
2022/05/20 10:00:38;;;;;;;5.72;2.40;;;;;;;14.29;40.58;100848.53;4956063;28;20400;-51
2022/05/20 10:03:48;;;;;;;9.63;2.17;;;;;;;14.22;40.05;100842.44;4955988;28;20362;-49
2022/05/20 10:06:29;;;;;;;6.60;2.50;;;;;;;14.15;40.50;100845.19;4936741;28;20043;-52
2022/05/20 10:09:16;;;;;;;7.95;2.17;;;;;;;14.18;40.21;100841.25;4952383;28;20078;-50
2022/05/20 10:11:50;;;;;;;8.15;2.50;;;;;;;13.89;40.67;100835.63;4952955;28;20122;-52
2022/05/20 10:14:23;;;;;;;7.57;2.13;;;;;;;13.93;40.18;100831.41;4954986;28;20031;-51
2022/05/20 10:17:17;;;;;;;7.90;2.25;;;;;;;13.70;40.57;100834.00;4955023;28;20484;-51
2022/05/20 10:20:08;;;;;;;11.35;2.50;;;;;;;13.70;41.12;100840.22;4955006;28;20400;-51
2022/05/20 10:22:46;;;;;;;8.57;2.38;;;;;;;13.86;41.31;100837.94;4954751;28;20118;-51
2022/05/20 10:25:17;;;;;;;7.75;2.53;;;;;;;13.97;41.47;100832.63;4936600;29;20094;-51
2022/05/20 10:27:46;;;;;;;6.05;2.10;;;;;;;13.88;41.35;100838.53;4955086;28;20036;-52
2022/05/20 10:33:13;;;;;;;7.82;2.35;;;;;;;13.78;41.43;100841.78;4955092;29;20404;-51
2022/05/20 10:36:16;;;;;;;6.57;1.90;;;;;;;13.68;41.59;100836.13;4954470;28;20031;-51
2022/05/20 10:38:53;;;;;;;9.73;2.63;;;;;;;13.67;41.75;100843.38;4948362;28;20121;-52
2022/05/20 10:42:00;;;;;;;7.75;2.38;;;;;;;13.70;41.58;100845.59;4946905;29;20045;-52
2022/05/20 10:50:31;;;;;;;7.32;2.33;;;;;;;13.52;41.87;100847.50;4945381;29;20130;-51
2022/05/20 10:53:05;;;;;;;7.78;2.20;;;;;;;13.52;42.11;100845.63;4953762;28;20027;-51
2022/05/20 10:55:31;;;;;;;7.68;2.40;;;;;;;13.68;41.65;100857.63;4938433;29;20027;-51
2022/05/20 10:58:31;;;;;;;6.18;1.90;;;;;;;13.51;42.03;100857.44;4954802;28;20027;-51
2022/05/20 11:01:03;;;;;;;7.05;2.33;;;;;;;13.51;41.28;100862.00;4953540;28;20484;-49
2022/05/20 11:04:03;;;;;;;6.93;1.70;;;;;;;13.52;39.61;100866.31;4954345;28;20039;-50
2022/05/20 11:06:41;;;;;;;6.38;2.10;;;;;;;13.41;39.87;100859.81;4944510;28;20512;-51
2022/05/20 11:09:08;;;;;;;5.28;1.83;;;;;;;13.37;40.23;100858.63;4952125;29;20062;-51
2022/05/20 11:11:56;;;;;;;5.18;1.50;;;;;;;13.32;41.16;100870.03;4953881;28;20039;-50
2022/05/20 11:15:03;;;;;;;6.25;2.38;;;;;;;13.30;41.39;100850.63;4954781;28;20488;-49
2022/05/20 11:17:46;;;;;;;4.18;1.35;;;;;;;13.58;40.82;100857.34;4942698;29;20047;-52
2022/05/20 11:20:58;;;;;;;6.60;2.17;;;;;;;13.54;40.77;100858.84;4939575;29;20043;-52
2022/05/20 11:23:32;;;;;;;5.45;1.75;;;;;;;13.47;39.95;100848.97;4942466;28;20459;-50
2022/05/20 11:26:24;;;;;;;7.95;1.73;;;;;;;13.58;39.75;100850.09;4944374;28;20034;-50
2022/05/20 11:29:04;;;;;;;6.57;1.60;;;;;;;13.55;38.70;100847.88;4942624;28;20039;-51
2022/05/20 11:31:53;;;;;;;6.63;1.63;;;;;;;13.45;38.36;100844.88;4949970;28;20026;-50
2022/05/20 11:34:32;;;;;;;7.80;1.90;;;;;;;13.30;38.80;100844.44;4958304;28;20515;-52
2022/05/20 11:37:17;;;;;;;5.93;2.05;;;;;;;13.25;39.17;100837.03;4938667;28;20158;-52
2022/05/20 11:40:21;;;;;;;7.72;1.63;;;;;;;13.18;39.55;100830.88;4941065;28;20027;-51
2022/05/20 11:43:05;;;;;;;7.78;1.92;;;;;;;13.10;40.07;100832.00;4940505;28;20497;-51
2022/05/20 11:45:52;;;;;;;7.13;1.88;;;;;;;13.06;40.45;100830.00;4935069;28;20448;-51
2022/05/20 11:48:27;;;;;;;7.80;1.80;;;;;;;13.00;40.77;100838.94;4943682;29;20159;-52
2022/05/20 11:51:05;;;;;;;4.60;1.42;;;;;;;12.98;40.56;100832.94;4953703;28;20023;-52
2022/05/20 11:54:07;;;;;;;6.55;1.85;;;;;;;12.92;40.46;100823.91;4953877;28;20035;-50
2022/05/20 11:56:57;;;;;;;4.28;1.90;;;;;;;12.95;40.78;100823.47;4914184;29;20417;-50
2022/05/20 11:59:36;;;;;;;6.18;1.58;;;;;;;12.91;41.35;100811.53;4934871;29;20067;-50
2022/05/20 12:02:07;;;;;;;5.63;1.88;;;;;;;12.95;41.39;100816.25;4934881;29;20030;-51
2022/05/20 12:04:35;;;;;;;6.65;1.60;;;;;;;12.91;41.20;100825.78;4937610;29;20496;-49
2022/05/20 12:07:09;;;;;;;4.97;1.58;;;;;;;12.91;41.79;100833.84;4956129;28;20081;-48
2022/05/20 12:09:44;;;;;;;6.13;2.00;;;;;;;12.88;42.09;100834.28;4941160;29;20500;-50
2022/05/20 12:12:33;;;;;;;7.07;1.90;;;;;;;12.86;42.34;100827.47;4946331;28;20023;-48
2022/05/20 12:15:14;;;;;;;7.03;2.08;;;;;;;12.84;42.63;100821.53;4953434;28;20035;-51
2022/05/20 12:17:42;;;;;;;8.25;2.05;;;;;;;12.77;43.24;100826.13;4948507;28;20035;-51
2022/05/20 12:25:58;;;;;;;8.15;2.17;;;;;;;12.74;43.76;100821.19;4953929;28;20027;-52
2022/05/20 12:28:24;;;;;;;7.53;2.15;;;;;;;12.64;43.94;100821.69;4953475;28;20085;-50